Pulaski, Iowa
Current Conditions -  °F | °C
As of 6:55 PM on Tuesday 27 Jan 2015 (Local Time) from KFFL Reporting Station
Overcast Overcast  
Wind Chill: 22°   Ceiling: 1200
Heat Index: 30°   Visibility: 10mi
Dew Point: 27°   Wind: 9mph
Humidity: 86%   Direction: 120°ESE
Pressure: 30.2"   Gusts: NA
Location:  40.7°N, 92.27°W
Report Text: KFFL 280055Z AUTO 12008KT 10SM OVC012 M01/M03 A3020 RMK AO2
Loading
Personal Weather Stations






























Interactive Weather Map New forecast layout! Learn more

10-Day Weather Forecast

Advertisements
Track Severe Weather on mobile